Time;durP1;ratioP1;P1;durP2;ratioP2;P2;SDS_P1;SDS_P2;PMS_P1;PMS_P2;Temp;Humidity;BMP_temperature;BMP_pressure;BME280_temperature;BME280_humidity;BME280_pressure;Samples;Min_cycle;Max_cycle;Signal;HPM_P1;HPM_P2
2021/07/28 07:02:13;;;;;;;;;;;;;;;;;;10623672;28;20035;-87
2021/07/28 07:07:58;;;;;;;5.20;4.43;;;;;;;;;;10580780;28;19908;-87
2021/07/28 07:12:59;;;;;;;8.32;5.60;;;;;;;;;;10578778;28;20038;-85
2021/07/28 07:18:01;;;;;;;6.18;5.35;;;;;;;;;;10581441;28;20483;-85
2021/07/28 07:23:02;;;;;;;6.03;5.30;;;;;;;;;;10598923;28;20035;-84
2021/07/28 07:28:05;;;;;;;6.38;5.65;;;;;;;;;;10587342;28;20165;-84
2021/07/28 07:38:27;;;;;;;13.93;6.03;;;;;;;;;;10575861;28;20032;-80
2021/07/28 07:43:48;;;;;;;6.85;5.10;;;;;;;;;;10573577;28;20114;-82
2021/07/28 08:00:30;;;;;;;6.30;4.90;;;;;;;;;;10596641;28;20024;-85
2021/07/28 08:05:49;;;;;;;7.13;5.70;;;;;;;;;;10579149;28;20039;-86
2021/07/28 08:10:55;;;;;;;8.10;5.43;;;;;;;;;;10578453;28;20047;-86
2021/07/28 08:15:56;;;;;;;7.78;5.35;;;;;;;;;;10574527;28;20110;-85
2021/07/28 08:21:04;;;;;;;6.97;4.95;;;;;;;;;;10584970;28;20035;-86
2021/07/28 08:26:26;;;;;;;7.75;5.47;;;;;;;;;;10577420;28;20031;-86
2021/07/28 08:31:28;;;;;;;7.65;5.15;;;;;;;;;;10578361;28;20028;-85
2021/07/28 08:36:40;;;;;;;8.13;5.07;;;;;;;;;;10573011;22;20063;-81
2021/07/28 08:42:04;;;;;;;8.77;4.88;;;;;;;;;;10587800;28;20043;-81
2021/07/28 08:52:49;;;;;;;5.38;3.78;;;;;;;;;;10631071;27;20023;-81
2021/07/28 08:58:38;;;;;;;4.95;3.60;;;;;;;;;;10626973;27;20023;-81
2021/07/28 09:09:47;;;;;;;5.75;3.92;;;;;;;;;;10416397;28;20045;-84
2021/07/28 09:15:08;;;;;;;5.95;3.78;;;;;;;;;;10607452;27;20043;-85
2021/07/28 09:20:13;;;;;;;7.88;5.13;;;;;;;;;;10611478;27;20035;-85
2021/07/28 09:25:32;;;;;;;6.50;4.97;;;;;;;;;;10615888;27;20114;-84
2021/07/28 09:31:00;;;;;;;6.93;5.10;;;;;;;;;;10501731;28;20036;-85
2021/07/28 09:36:07;;;;;;;;;;;;;;;;;;10501571;28;20120;-82
2021/07/28 09:41:19;;;;;;;6.55;4.70;;;;;;;;;;10609746;27;19908;-82
2021/07/28 09:46:32;;;;;;;6.57;4.72;;;;;;;;;;10614188;27;20112;-82
2021/07/28 09:51:51;;;;;;;5.97;4.53;;;;;;;;;;10612747;28;20027;-82
2021/07/28 09:57:08;;;;;;;5.43;4.78;;;;;;;;;;10614055;28;20474;-81
2021/07/28 10:02:22;;;;;;;6.30;4.97;;;;;;;;;;10634819;28;20023;-82
2021/07/28 10:07:53;;;;;;;6.60;4.78;;;;;;;;;;10616094;28;20500;-81
2021/07/28 10:19:00;;;;;;;7.97;5.00;;;;;;;;;;10586278;28;20116;-81
2021/07/28 10:24:57;;;;;;;4.53;4.13;;;;;;;;;;10535738;28;20107;-81
2021/07/28 10:36:03;;;;;;;4.82;4.10;;;;;;;;;;10532101;27;20054;-81
2021/07/28 10:41:09;;;;;;;5.88;4.47;;;;;;;;;;10481381;27;20087;-80
2021/07/28 10:46:59;;;;;;;5.35;4.03;;;;;;;;;;10635671;27;20038;-81
2021/07/28 10:52:03;;;;;;;5.70;4.25;;;;;;;;;;10561638;27;20042;-80
2021/07/28 10:57:31;;;;;;;7.55;4.20;;;;;;;;;;10620966;27;20379;-86
2021/07/28 11:02:58;;;;;;;4.18;3.78;;;;;;;;;;10643750;27;20054;-85
2021/07/28 11:13:44;;;;;;;3.80;3.40;;;;;;;;;;10640343;27;20031;-85
2021/07/28 11:24:23;;;;;;;7.03;4.25;;;;;;;;;;10642713;27;20035;-85
2021/07/28 11:29:30;;;;;;;6.38;4.10;;;;;;;;;;10624310;27;20023;-86
2021/07/28 11:34:31;;;;;;;5.70;3.38;;;;;;;;;;10624137;27;20035;-85
2021/07/28 11:39:32;;;;;;;3.78;3.03;;;;;;;;;;10623044;27;20023;-85
2021/07/28 11:44:43;;;;;;;3.63;2.83;;;;;;;;;;10627776;27;20015;-85
2021/07/28 11:49:44;;;;;;;4.63;3.20;;;;;;;;;;10627340;27;20054;-86
2021/07/28 11:54:45;;;;;;;4.70;3.20;;;;;;;;;;10630887;27;20023;-85
2021/07/28 11:59:46;;;;;;;4.85;3.17;;;;;;;;;;10625257;27;20023;-86
2021/07/28 12:05:12;;;;;;;3.83;2.90;;;;;;;;;;10624075;27;20015;-85
2021/07/28 12:10:13;;;;;;;3.97;2.70;;;;;;;;;;10623191;27;20019;-85
2021/07/28 12:15:14;;;;;;;3.45;2.45;;;;;;;;;;10621218;27;20027;-86
2021/07/28 12:20:15;;;;;;;3.95;2.30;;;;;;;;;;10621576;27;20053;-85
2021/07/28 12:25:20;;;;;;;2.63;2.13;;;;;;;;;;10620474;27;20023;-85
2021/07/28 12:30:38;;;;;;;2.80;2.30;;;;;;;;;;10621180;27;20023;-85
2021/07/28 12:36:04;;;;;;;3.40;2.65;;;;;;;;;;10636180;27;20123;-85
2021/07/28 12:41:30;;;;;;;6.07;2.10;;;;;;;;;;10621051;27;20034;-85
2021/07/28 12:46:31;;;;;;;2.88;1.92;;;;;;;;;;10627128;27;20099;-84
2021/07/28 12:51:45;;;;;;;3.20;2.20;;;;;;;;;;10618588;27;20055;-86
2021/07/28 12:57:34;;;;;;;8.30;3.15;;;;;;;;;;10635914;27;20030;-85
2021/07/28 13:03:10;;;;;;;3.00;2.20;;;;;;;;;;10595733;27;20478;-85
2021/07/28 13:08:28;;;;;;;4.82;1.42;;;;;;;;;;10636597;27;20016;-85
2021/07/28 13:13:32;;;;;;;2.42;1.70;;;;;;;;;;10619241;27;20027;-85
2021/07/28 13:19:03;;;;;;;2.60;1.98;;;;;;;;;;10618170;27;20027;-85
2021/07/28 13:24:12;;;;;;;2.33;1.80;;;;;;;;;;10619089;27;20032;-84
2021/07/28 13:29:38;;;;;;;2.28;1.80;;;;;;;;;;10616270;27;20023;-86
2021/07/28 13:34:39;;;;;;;3.85;1.83;;;;;;;;;;10617804;27;20039;-84
2021/07/28 13:40:18;;;;;;;2.97;2.00;;;;;;;;;;10617199;27;20027;-85
2021/07/28 13:45:20;;;;;;;3.58;1.80;;;;;;;;;;10615653;27;20023;-85
2021/07/28 14:02:10;;;;;;;2.63;1.88;;;;;;;;;;10633526;28;20031;-85
2021/07/28 14:07:51;;;;;;;4.85;2.17;;;;;;;;;;10501068;28;20566;-86
2021/07/28 14:13:13;;;;;;;2.65;1.75;;;;;;;;;;10486220;28;20387;-83
2021/07/28 14:18:20;;;;;;;3.47;1.77;;;;;;;;;;10500633;28;20063;-83
2021/07/28 14:34:22;;;;;;;1.85;1.50;;;;;;;;;;10672599;22;20134;-82
2021/07/28 14:39:39;;;;;;;3.03;1.52;;;;;;;;;;10534934;28;20060;-82
2021/07/28 14:44:44;;;;;;;2.28;1.70;;;;;;;;;;10549494;28;20020;-83
2021/07/28 14:49:45;;;;;;;2.78;2.30;;;;;;;;;;10577527;28;20039;-83
2021/07/28 14:54:46;;;;;;;5.55;2.40;;;;;;;;;;10595456;28;20357;-84
2021/07/28 14:59:47;;;;;;;2.83;1.88;;;;;;;;;;10576276;28;20031;-84
2021/07/28 15:04:48;;;;;;;2.20;1.65;;;;;;;;;;10577936;28;20424;-83
2021/07/28 15:09:49;;;;;;;3.58;2.05;;;;;;;;;;10576604;28;20505;-82
2021/07/28 15:14:54;;;;;;;3.08;1.63;;;;;;;;;;10577580;28;20031;-82
2021/07/28 15:19:56;;;;;;;3.42;1.75;;;;;;;;;;10576558;28;20028;-82
2021/07/28 15:24:57;;;;;;;3.40;1.60;;;;;;;;;;10572516;28;20027;-81
2021/07/28 15:29:58;;;;;;;4.30;1.90;;;;;;;;;;10574359;28;20118;-81
2021/07/28 15:34:59;;;;;;;3.30;1.95;;;;;;;;;;10558440;28;20028;-83
2021/07/28 15:40:01;;;;;;;2.90;1.88;;;;;;;;;;10573687;28;20027;-82
2021/07/28 15:45:03;;;;;;;4.45;2.60;;;;;;;;;;10575021;28;20020;-82
2021/07/28 15:50:04;;;;;;;2.72;2.03;;;;;;;;;;10575322;28;20019;-83
2021/07/28 15:55:06;;;;;;;4.85;2.10;;;;;;;;;;10574615;28;20118;-81
2021/07/28 16:00:08;;;;;;;4.07;2.20;;;;;;;;;;10576701;28;20032;-86
2021/07/28 16:05:10;;;;;;;3.60;2.58;;;;;;;;;;10580711;28;20538;-84
2021/07/28 16:10:12;;;;;;;3.35;1.92;;;;;;;;;;10579493;28;20030;-83
2021/07/28 16:15:26;;;;;;;5.72;1.80;;;;;;;;;;10576685;28;20024;-84
2021/07/28 16:20:27;;;;;;;4.22;1.98;;;;;;;;;;10573657;28;20394;-83
2021/07/28 16:25:44;;;;;;;4.22;1.80;;;;;;;;;;10577265;28;20024;-86
2021/07/28 16:31:24;;;;;;;2.60;1.70;;;;;;;;;;10577494;28;20474;-86
2021/07/28 16:36:31;;;;;;;3.20;1.67;;;;;;;;;;10579461;28;20027;-87
2021/07/28 16:47:17;;;;;;;4.93;2.03;;;;;;;;;;10467288;28;20032;-86
2021/07/28 16:52:20;;;;;;;4.72;2.05;;;;;;;;;;10445967;28;20036;-86
2021/07/28 16:57:27;;;;;;;3.95;2.08;;;;;;;;;;10447427;28;20104;-86
2021/07/28 17:02:28;;;;;;;4.00;1.83;;;;;;;;;;10448279;28;20119;-86
2021/07/28 17:07:29;;;;;;;8.60;2.42;;;;;;;;;;10555857;28;20034;-86
2021/07/28 17:12:30;;;;;;;2.80;1.70;;;;;;;;;;10577836;28;20540;-86
2021/07/28 17:17:31;;;;;;;4.38;2.70;;;;;;;;;;10615055;27;20035;-83
2021/07/28 17:22:34;;;;;;;7.00;2.72;;;;;;;;;;10615265;27;20051;-83
2021/07/28 17:27:37;;;;;;;4.35;2.25;;;;;;;;;;10610866;27;20042;-85
2021/07/28 17:32:38;;;;;;;3.83;2.00;;;;;;;;;;10597712;28;20031;-85
2021/07/28 17:37:43;;;;;;;4.93;2.10;;;;;;;;;;10596558;28;20051;-85
2021/07/28 17:42:44;;;;;;;3.85;2.10;;;;;;;;;;10596396;28;20024;-86
2021/07/28 17:47:45;;;;;;;4.97;1.83;;;;;;;;;;10593651;28;20040;-85
2021/07/28 17:52:46;;;;;;;5.07;2.00;;;;;;;;;;10592899;28;20042;-85
2021/07/28 17:57:47;;;;;;;3.22;2.08;;;;;;;;;;10592809;28;20029;-86
2021/07/28 18:02:48;;;;;;;4.80;3.30;;;;;;;;;;10594303;28;20091;-85
2021/07/28 18:07:49;;;;;;;4.03;2.42;;;;;;;;;;10595830;28;20023;-85
2021/07/28 18:12:50;;;;;;;4.22;2.03;;;;;;;;;;10599155;27;20039;-85
2021/07/28 18:17:51;;;;;;;3.40;1.80;;;;;;;;;;10595460;28;20024;-85
2021/07/28 18:22:54;;;;;;;3.72;1.90;;;;;;;;;;10594448;28;20031;-85
2021/07/28 18:27:55;;;;;;;4.93;2.00;;;;;;;;;;10594590;28;20024;-84
2021/07/28 18:32:57;;;;;;;3.08;2.00;;;;;;;;;;10612450;28;20079;-84
2021/07/28 18:37:58;;;;;;;3.83;2.20;;;;;;;;;;10596272;28;20035;-85
2021/07/28 18:42:59;;;;;;;2.88;2.00;;;;;;;;;;10595500;28;20040;-85
2021/07/28 18:48:00;;;;;;;3.70;2.08;;;;;;;;;;10596073;28;20027;-86
2021/07/28 18:53:01;;;;;;;2.17;1.70;;;;;;;;;;10594199;28;20024;-86
2021/07/28 18:58:02;;;;;;;2.83;2.10;;;;;;;;;;10597812;28;20035;-84
2021/07/28 19:03:07;;;;;;;5.53;1.90;;;;;;;;;;10602146;28;20023;-84
2021/07/28 19:08:08;;;;;;;3.65;1.75;;;;;;;;;;10600848;28;20016;-84
2021/07/28 19:13:09;;;;;;;3.22;1.70;;;;;;;;;;10602211;28;20046;-86
2021/07/28 19:18:10;;;;;;;6.20;2.13;;;;;;;;;;10601906;28;20050;-86
2021/07/28 19:23:11;;;;;;;3.55;2.30;;;;;;;;;;10600888;28;20039;-86
2021/07/28 19:28:12;;;;;;;2.72;2.08;;;;;;;;;;10585905;28;20069;-86
2021/07/28 19:33:13;;;;;;;2.72;1.83;;;;;;;;;;10575592;28;20039;-85
2021/07/28 19:38:14;;;;;;;3.40;1.90;;;;;;;;;;10574808;28;20036;-86
2021/07/28 19:43:15;;;;;;;5.40;2.50;;;;;;;;;;10593196;28;20024;-86
2021/07/28 19:48:22;;;;;;;3.50;1.80;;;;;;;;;;10576023;28;20020;-86
2021/07/28 19:53:23;;;;;;;3.53;2.00;;;;;;;;;;10575673;28;20023;-85
2021/07/28 19:58:24;;;;;;;2.00;1.70;;;;;;;;;;10574396;28;20031;-86
2021/07/28 20:03:25;;;;;;;5.93;2.80;;;;;;;;;;10574093;28;20032;-86
2021/07/28 20:08:27;;;;;;;3.33;2.08;;;;;;;;;;10574765;28;20069;-86
2021/07/28 20:13:28;;;;;;;4.07;2.20;;;;;;;;;;10573888;28;20015;-86
2021/07/28 20:18:29;;;;;;;4.53;2.83;;;;;;;;;;10573493;28;20028;-86
